createdAt,value
2023-01-17T00:02:29.119Z,970.81
2023-01-17T00:05:36.788Z,970.82
2023-01-17T00:08:44.519Z,970.81
2023-01-17T00:11:52.760Z,970.87
2023-01-17T00:15:00.625Z,970.82
2023-01-17T00:18:08.302Z,970.87
2023-01-17T00:21:16.269Z,970.89
2023-01-17T00:24:23.564Z,970.96
2023-01-17T00:27:31.489Z,970.95
2023-01-17T00:30:39.553Z,970.98
2023-01-17T00:33:46.963Z,970.99
2023-01-17T00:36:55.059Z,971.06
2023-01-17T00:40:02.730Z,970.98
2023-01-17T00:43:10.382Z,971.06
2023-01-17T00:46:18.275Z,971.10
2023-01-17T00:49:26.396Z,971.12
2023-01-17T00:52:34.515Z,971.16
2023-01-17T00:55:42.012Z,971.29
2023-01-17T00:58:50.348Z,971.19
2023-01-17T01:01:58.806Z,971.28
2023-01-17T01:05:06.295Z,971.26
2023-01-17T01:08:14.404Z,971.13
2023-01-17T01:11:22.668Z,971.19
2023-01-17T01:14:30.030Z,971.28
2023-01-17T01:17:38.399Z,971.33
2023-01-17T01:20:46.298Z,971.37
2023-01-17T01:23:54.165Z,971.37
2023-01-17T01:27:02.315Z,971.39
2023-01-17T01:30:10.103Z,971.41
2023-01-17T01:33:17.846Z,971.41
2023-01-17T01:36:25.862Z,971.46
2023-01-17T01:39:33.597Z,971.47
2023-01-17T01:42:41.344Z,971.42
2023-01-17T01:45:49.557Z,971.44
2023-01-17T01:48:57.244Z,971.44
2023-01-17T01:52:05.064Z,971.56
2023-01-17T01:55:12.770Z,971.59
2023-01-17T01:58:20.913Z,971.61
2023-01-17T02:01:28.842Z,971.64
2023-01-17T02:04:36.688Z,971.71
2023-01-17T02:07:44.896Z,971.76
2023-01-17T02:10:52.670Z,971.81
2023-01-17T02:14:00.087Z,971.85
2023-01-17T02:17:08.100Z,971.87
2023-01-17T02:20:15.554Z,971.94
2023-01-17T02:23:23.851Z,971.95
2023-01-17T02:26:32.251Z,971.88
2023-01-17T02:29:39.815Z,971.86
2023-01-17T02:32:47.907Z,971.94
2023-01-17T02:35:55.322Z,971.98
2023-01-17T02:39:03.413Z,972.02
2023-01-17T02:42:11.510Z,972.06
2023-01-17T02:45:19.227Z,972.14
2023-01-17T02:48:26.958Z,972.21
2023-01-17T02:51:35.190Z,972.26
2023-01-17T02:54:42.670Z,972.25
2023-01-17T02:57:50.503Z,972.28
2023-01-17T03:00:58.400Z,972.25
2023-01-17T03:04:06.556Z,972.34
2023-01-17T03:07:14.254Z,972.41
2023-01-17T03:10:22.164Z,972.50
2023-01-17T03:13:30.343Z,972.63
2023-01-17T03:16:37.793Z,972.65
2023-01-17T03:19:46.118Z,972.78
2023-01-17T03:22:54.195Z,972.76
2023-01-17T03:26:01.657Z,972.77
2023-01-17T03:29:09.497Z,972.78
2023-01-17T03:32:17.318Z,972.86
2023-01-17T03:35:25.499Z,972.92
2023-01-17T03:38:33.129Z,972.97
2023-01-17T03:41:40.878Z,972.98
2023-01-17T03:44:49.507Z,972.95
2023-01-17T03:47:57.236Z,973.13
2023-01-17T03:51:04.894Z,973.07
2023-01-17T03:54:12.887Z,973.15
2023-01-17T03:57:20.246Z,973.17
2023-01-17T04:00:28.304Z,973.24
2023-01-17T04:03:36.353Z,973.31
2023-01-17T04:06:43.723Z,973.29
2023-01-17T04:09:51.925Z,973.37
2023-01-17T04:12:59.815Z,973.34
2023-01-17T04:16:07.315Z,973.26
2023-01-17T04:19:15.429Z,973.39
2023-01-17T04:22:23.174Z,973.47
2023-01-17T04:25:31.141Z,973.30
2023-01-17T04:28:39.521Z,973.33
2023-01-17T04:31:47.205Z,973.33
2023-01-17T04:34:54.898Z,973.27
2023-01-17T04:38:02.917Z,973.43
2023-01-17T04:41:10.580Z,973.37
2023-01-17T04:44:18.003Z,973.44
2023-01-17T04:47:26.197Z,973.55
2023-01-17T04:50:33.876Z,973.52
2023-01-17T04:53:41.940Z,973.54
2023-01-17T04:56:49.812Z,973.60
2023-01-17T04:59:58.047Z,973.65
2023-01-17T05:03:05.790Z,973.57
2023-01-17T05:06:13.511Z,973.63
2023-01-17T05:09:21.530Z,973.66
2023-01-17T05:12:28.842Z,973.75
2023-01-17T05:15:36.925Z,973.68
2023-01-17T05:18:45.359Z,973.78
2023-01-17T05:21:52.881Z,973.81
2023-01-17T05:25:01.038Z,973.89
2023-01-17T05:28:09.073Z,973.83
2023-01-17T05:31:16.699Z,973.90
2023-01-17T05:34:24.899Z,974.07
2023-01-17T05:37:32.937Z,974.11
2023-01-17T05:40:40.738Z,974.10
2023-01-17T05:43:48.845Z,974.16
2023-01-17T05:46:56.425Z,974.25
2023-01-17T05:50:04.116Z,974.29
2023-01-17T05:53:12.533Z,974.34
2023-01-17T05:56:20.263Z,974.42
2023-01-17T05:59:37.129Z,974.58
2023-01-17T06:02:33.145Z,974.61
2023-01-17T06:05:41.149Z,974.76
2023-01-17T06:08:48.966Z,974.91
2023-01-17T06:11:56.780Z,974.97
2023-01-17T06:15:04.559Z,975.19
2023-01-17T06:18:12.318Z,975.34
2023-01-17T06:21:20.147Z,975.36
2023-01-17T06:24:27.871Z,975.54
2023-01-17T06:27:35.809Z,975.67
2023-01-17T06:30:43.534Z,975.63
2023-01-17T06:33:51.909Z,975.74
2023-01-17T06:36:59.369Z,975.88
2023-01-17T06:40:07.494Z,975.89
2023-01-17T06:43:16.053Z,975.94
2023-01-17T06:46:23.566Z,976.00
2023-01-17T06:49:31.965Z,976.08
2023-01-17T06:52:39.735Z,976.17
2023-01-17T06:55:47.724Z,976.29
2023-01-17T06:58:55.944Z,976.32
2023-01-17T07:02:03.739Z,976.42
2023-01-17T07:05:11.556Z,976.54
2023-01-17T07:08:19.563Z,976.59
2023-01-17T07:11:27.384Z,976.63
2023-01-17T07:14:35.178Z,976.71
2023-01-17T07:17:42.949Z,976.81
2023-01-17T07:20:51.048Z,976.81
2023-01-17T07:23:58.868Z,976.85
2023-01-17T07:27:06.489Z,977.00
2023-01-17T07:30:14.604Z,977.07
2023-01-17T07:33:22.400Z,977.04
2023-01-17T07:36:30.156Z,977.09
2023-01-17T07:39:38.576Z,977.16
2023-01-17T07:42:45.959Z,977.19
2023-01-17T07:45:54.528Z,977.30
2023-01-17T07:49:02.604Z,977.24
2023-01-17T07:52:10.173Z,977.30
2023-01-17T07:55:18.232Z,977.30
2023-01-17T07:58:26.322Z,977.34
2023-01-17T08:01:33.898Z,977.37
2023-01-17T08:04:41.859Z,977.39
2023-01-17T08:07:49.902Z,977.43
2023-01-17T08:10:57.337Z,977.52
2023-01-17T08:14:05.164Z,977.63
2023-01-17T08:17:13.029Z,977.69
2023-01-17T08:20:20.676Z,977.68
2023-01-17T08:23:28.322Z,977.73
2023-01-17T08:26:36.304Z,977.84
2023-01-17T08:29:44.589Z,977.85
2023-01-17T08:32:51.994Z,977.91
2023-01-17T08:36:00.111Z,977.95
2023-01-17T08:39:08.461Z,977.96
2023-01-17T08:42:15.887Z,978.05
2023-01-17T08:45:24.197Z,978.10
2023-01-17T08:48:32.447Z,978.19
2023-01-17T08:51:39.968Z,978.21
2023-01-17T08:54:48.073Z,978.24
2023-01-17T08:57:56.511Z,978.28
2023-01-17T09:01:04.005Z,978.28
2023-01-17T09:04:12.626Z,978.32
2023-01-17T09:07:20.449Z,978.42
2023-01-17T09:10:28.327Z,978.44
2023-01-17T09:13:36.322Z,978.43
2023-01-17T09:16:44.106Z,978.46
2023-01-17T09:19:52.144Z,978.50
2023-01-17T09:23:00.744Z,978.58
2023-01-17T09:26:08.144Z,978.62
2023-01-17T09:29:16.524Z,978.65
2023-01-17T09:32:24.845Z,978.71
2023-01-17T09:35:32.305Z,978.66
2023-01-17T09:38:41.137Z,978.65
2023-01-17T09:41:48.684Z,978.58
2023-01-17T09:44:56.902Z,978.65
2023-01-17T09:48:05.425Z,978.76
2023-01-17T09:51:12.791Z,978.80
2023-01-17T09:54:21.150Z,978.84
2023-01-17T09:57:29.097Z,978.84
2023-01-17T10:00:37.075Z,978.91
2023-01-17T10:03:46.687Z,978.86
2023-01-17T10:06:54.192Z,978.87
2023-01-17T10:10:02.981Z,978.88
2023-01-17T10:13:11.168Z,978.81
2023-01-17T10:16:19.214Z,978.82
2023-01-17T10:19:27.029Z,978.92
2023-01-17T10:22:35.287Z,978.87
2023-01-17T10:25:42.598Z,978.93
2023-01-17T10:28:51.869Z,978.98
2023-01-17T10:31:59.273Z,978.84
2023-01-17T10:35:07.889Z,978.93
2023-01-17T10:38:15.826Z,978.94
2023-01-17T10:41:23.453Z,979.00
2023-01-17T10:44:31.374Z,978.97
2023-01-17T10:47:39.607Z,979.04
2023-01-17T10:50:47.424Z,979.08
2023-01-17T10:53:55.453Z,979.14
2023-01-17T10:57:03.218Z,979.13
2023-01-17T11:00:11.035Z,979.10
2023-01-17T11:03:19.363Z,979.09
2023-01-17T11:06:26.757Z,979.08
2023-01-17T11:09:35.011Z,979.10
2023-01-17T11:12:43.322Z,979.16
2023-01-17T11:15:50.896Z,979.07
2023-01-17T11:18:59.307Z,979.09
2023-01-17T11:22:07.083Z,978.99
2023-01-17T11:25:14.832Z,979.02
2023-01-17T11:28:22.441Z,979.06
2023-01-17T11:31:30.553Z,979.01
2023-01-17T11:34:38.210Z,979.05
2023-01-17T11:37:45.693Z,979.09
2023-01-17T11:40:53.977Z,979.08
2023-01-17T11:44:01.339Z,979.06
2023-01-17T11:47:09.420Z,979.10
2023-01-17T11:50:17.520Z,979.20
2023-01-17T11:53:24.907Z,979.15
2023-01-17T11:56:32.954Z,979.19
2023-01-17T11:59:40.957Z,979.22
2023-01-17T12:02:48.320Z,979.19
2023-01-17T12:05:56.486Z,979.21
2023-01-17T12:09:04.301Z,979.23
2023-01-17T12:12:12.009Z,979.15
2023-01-17T12:15:20.497Z,979.21
2023-01-17T12:18:28.096Z,979.15
2023-01-17T12:21:35.832Z,979.23
2023-01-17T12:24:43.820Z,979.27
2023-01-17T12:27:51.456Z,979.16
2023-01-17T12:30:59.392Z,979.13
2023-01-17T12:34:08.140Z,979.21
2023-01-17T12:37:16.381Z,979.16
2023-01-17T12:40:24.313Z,979.22
2023-01-17T12:43:32.201Z,979.23
2023-01-17T12:46:40.362Z,979.22
2023-01-17T12:49:48.059Z,979.33
2023-01-17T12:52:55.430Z,979.33
2023-01-17T12:56:03.726Z,979.34
2023-01-17T12:59:11.479Z,979.37
2023-01-17T13:02:19.396Z,979.35
2023-01-17T13:05:27.751Z,979.37
2023-01-17T13:08:35.766Z,979.41
2023-01-17T13:11:43.663Z,979.44
2023-01-17T13:14:51.725Z,979.48
2023-01-17T13:17:59.563Z,979.55
2023-01-17T13:21:07.283Z,979.61
2023-01-17T13:24:14.909Z,979.67
2023-01-17T13:27:22.931Z,979.73
2023-01-17T13:30:30.666Z,979.84
2023-01-17T13:33:38.425Z,979.93
2023-01-17T13:36:46.631Z,979.89
2023-01-17T13:39:54.566Z,980.01
2023-01-17T13:43:02.400Z,980.05
2023-01-17T13:46:10.504Z,980.14
2023-01-17T13:49:17.884Z,980.15
2023-01-17T13:52:26.351Z,980.14
2023-01-17T13:55:34.596Z,980.12
2023-01-17T13:58:41.948Z,980.15
2023-01-17T14:01:50.073Z,980.23
2023-01-17T14:04:58.367Z,980.15
2023-01-17T14:08:05.756Z,980.18
2023-01-17T14:11:14.221Z,980.20
2023-01-17T14:14:21.990Z,980.24
2023-01-17T14:17:30.212Z,980.22
2023-01-17T14:20:38.063Z,980.28
2023-01-17T14:23:45.825Z,980.27
2023-01-17T14:26:53.472Z,980.37
2023-01-17T14:30:01.638Z,980.36
2023-01-17T14:33:09.457Z,980.38
2023-01-17T14:36:17.637Z,980.42
2023-01-17T14:39:25.076Z,980.44
2023-01-17T14:42:33.228Z,980.44
2023-01-17T14:45:41.581Z,980.46
2023-01-17T14:48:48.887Z,980.61
2023-01-17T14:51:56.996Z,980.55
2023-01-17T14:55:04.416Z,980.65
2023-01-17T14:58:11.860Z,980.57
2023-01-17T15:01:20.066Z,980.59
2023-01-17T15:04:27.862Z,980.67
2023-01-17T15:07:35.479Z,980.65
2023-01-17T15:10:43.611Z,980.66
2023-01-17T15:13:50.871Z,980.64
2023-01-17T15:16:59.003Z,980.69
2023-01-17T15:20:07.422Z,980.74
2023-01-17T15:23:14.920Z,980.78
2023-01-17T15:26:23.006Z,980.76
2023-01-17T15:29:31.151Z,980.80
2023-01-17T15:32:39.074Z,980.73
2023-01-17T15:35:46.799Z,980.83
2023-01-17T15:38:54.723Z,980.82
2023-01-17T15:42:03.003Z,980.91
2023-01-17T15:45:11.280Z,980.88
2023-01-17T15:48:19.182Z,980.94
2023-01-17T15:51:27.620Z,980.90
2023-01-17T15:54:35.213Z,980.95
2023-01-17T15:57:43.643Z,980.92
2023-01-17T16:00:52.159Z,980.92
2023-01-17T16:03:59.760Z,980.90
2023-01-17T16:07:07.676Z,980.95
2023-01-17T16:10:16.108Z,980.89
2023-01-17T16:13:23.737Z,980.98
2023-01-17T16:16:32.132Z,981.04
2023-01-17T16:19:40.366Z,981.12
2023-01-17T16:22:48.240Z,981.08
2023-01-17T16:25:56.267Z,981.10
2023-01-17T16:29:04.003Z,981.07
2023-01-17T16:32:11.839Z,981.12
2023-01-17T16:35:20.247Z,981.07
2023-01-17T16:38:28.296Z,981.16
2023-01-17T16:41:36.280Z,981.15
2023-01-17T16:44:44.005Z,981.11
2023-01-17T16:47:52.338Z,981.10
2023-01-17T16:51:00.373Z,981.12
2023-01-17T16:54:08.113Z,981.21
2023-01-17T16:57:16.713Z,981.21
2023-01-17T17:00:24.559Z,981.18
2023-01-17T17:03:32.209Z,981.21
2023-01-17T17:06:40.123Z,981.23
2023-01-17T17:09:48.279Z,981.35
2023-01-17T17:12:56.354Z,981.28
2023-01-17T17:16:04.747Z,981.32
2023-01-17T17:19:12.545Z,981.40
2023-01-17T17:22:20.559Z,981.42
2023-01-17T17:25:28.693Z,981.36
2023-01-17T17:28:36.420Z,981.46
2023-01-17T17:31:44.295Z,981.54
2023-01-17T17:34:52.419Z,981.68
2023-01-17T17:38:00.677Z,981.65
2023-01-17T17:41:09.180Z,981.65
2023-01-17T17:44:17.242Z,981.66
2023-01-17T17:47:25.617Z,981.67
2023-01-17T17:50:33.790Z,981.64
2023-01-17T17:53:41.521Z,981.60
2023-01-17T17:56:50.716Z,981.71
2023-01-17T17:59:58.827Z,981.71
2023-01-17T18:03:07.459Z,981.72
2023-01-17T18:06:15.829Z,981.69
2023-01-17T18:09:23.343Z,981.72
2023-01-17T18:12:31.782Z,981.74
2023-01-17T18:15:40.194Z,981.72
2023-01-17T18:18:47.900Z,981.81
2023-01-17T18:21:56.559Z,981.78
2023-01-17T18:25:04.515Z,981.86
2023-01-17T18:28:11.883Z,981.90
2023-01-17T18:31:20.091Z,981.90
2023-01-17T18:34:27.930Z,981.77
2023-01-17T18:37:35.972Z,981.78
2023-01-17T18:40:43.801Z,981.78
2023-01-17T18:43:52.032Z,981.74
2023-01-17T18:47:00.127Z,981.87
2023-01-17T18:50:07.508Z,981.89
2023-01-17T18:53:15.773Z,981.87
2023-01-17T18:56:23.944Z,981.91
2023-01-17T18:59:31.420Z,981.88
2023-01-17T19:02:39.781Z,981.93
2023-01-17T19:05:47.570Z,981.99
2023-01-17T19:08:55.437Z,981.98
2023-01-17T19:12:03.825Z,982.03
2023-01-17T19:15:11.938Z,982.14
2023-01-17T19:18:19.896Z,982.13
2023-01-17T19:21:28.379Z,982.10
2023-01-17T19:24:36.359Z,982.20
2023-01-17T19:27:44.347Z,982.24
2023-01-17T19:30:52.308Z,982.23
2023-01-17T19:34:00.503Z,982.25
2023-01-17T19:37:08.265Z,982.25
2023-01-17T19:40:16.023Z,982.32
2023-01-17T19:43:24.376Z,982.32
2023-01-17T19:46:32.472Z,982.33
2023-01-17T19:49:40.466Z,982.44
2023-01-17T19:52:48.753Z,982.37
2023-01-17T19:55:56.336Z,982.45
2023-01-17T19:59:04.699Z,982.46
2023-01-17T20:02:13.080Z,982.50
2023-01-17T20:05:20.431Z,982.56
2023-01-17T20:08:28.689Z,982.66
2023-01-17T20:11:36.744Z,982.74
2023-01-17T20:14:44.170Z,982.78
2023-01-17T20:17:52.224Z,982.84
2023-01-17T20:21:00.211Z,982.78
2023-01-17T20:24:07.488Z,982.89
2023-01-17T20:27:15.728Z,982.97
2023-01-17T20:30:23.952Z,982.90
2023-01-17T20:33:31.403Z,982.93
2023-01-17T20:36:39.572Z,982.96
2023-01-17T20:39:47.413Z,982.91
2023-01-17T20:42:55.384Z,982.84
2023-01-17T20:46:03.524Z,982.80
2023-01-17T20:49:11.368Z,982.78
2023-01-17T20:52:19.106Z,982.76
2023-01-17T20:55:27.213Z,982.80
2023-01-17T20:58:35.106Z,982.86
2023-01-17T21:01:43.127Z,982.88
2023-01-17T21:04:50.946Z,982.93
2023-01-17T21:07:59.371Z,982.93
2023-01-17T21:11:07.285Z,982.93
2023-01-17T21:14:15.044Z,982.99
2023-01-17T21:17:23.060Z,982.97
2023-01-17T21:20:30.736Z,983.04
2023-01-17T21:23:38.483Z,983.11
2023-01-17T21:26:46.648Z,983.17
2023-01-17T21:29:54.427Z,983.22
2023-01-17T21:33:02.314Z,983.34
2023-01-17T21:36:10.327Z,983.36
2023-01-17T21:39:17.678Z,983.40
2023-01-17T21:42:25.585Z,983.43
2023-01-17T21:45:33.644Z,983.45
2023-01-17T21:48:40.987Z,983.52
2023-01-17T21:51:49.069Z,983.52
2023-01-17T21:54:57.109Z,983.57
2023-01-17T21:58:04.627Z,983.64
2023-01-17T22:01:13.044Z,983.70
2023-01-17T22:04:21.038Z,983.62
2023-01-17T22:07:29.199Z,983.68
2023-01-17T22:10:37.064Z,983.71
2023-01-17T22:13:45.149Z,983.72
2023-01-17T22:16:52.846Z,983.67
2023-01-17T22:20:00.841Z,983.79
2023-01-17T22:23:08.600Z,983.79
2023-01-17T22:26:16.724Z,983.80
2023-01-17T22:29:24.131Z,983.88
2023-01-17T22:32:32.280Z,983.84
2023-01-17T22:35:40.531Z,983.98
2023-01-17T22:38:47.932Z,983.91
2023-01-17T22:41:56.091Z,983.98
2023-01-17T22:45:03.683Z,983.99
2023-01-17T22:48:11.573Z,983.92
2023-01-17T22:51:19.353Z,983.98
2023-01-17T22:54:27.101Z,984.02
2023-01-17T22:57:34.941Z,983.93
2023-01-17T23:00:42.853Z,983.96
2023-01-17T23:03:50.583Z,983.86
2023-01-17T23:06:57.624Z,983.89
2023-01-17T23:10:04.738Z,983.92
2023-01-17T23:13:12.167Z,983.93
2023-01-17T23:16:18.901Z,984.00
2023-01-17T23:19:26.501Z,984.02
2023-01-17T23:22:33.857Z,983.98
2023-01-17T23:25:40.929Z,983.99
2023-01-17T23:28:47.600Z,983.93
2023-01-17T23:31:55.027Z,983.88
2023-01-17T23:35:02.080Z,983.80
2023-01-17T23:38:09.121Z,983.78
2023-01-17T23:41:16.579Z,983.84
2023-01-17T23:44:23.882Z,983.78
2023-01-17T23:47:30.959Z,983.68
2023-01-17T23:50:37.969Z,983.66
2023-01-17T23:53:45.475Z,983.66
2023-01-17T23:56:52.410Z,983.61
2023-01-17T23:59:59.517Z,983.60
